sensor_id;sensor_type;location;lat;lon;timestamp;temperature;humidity
11284;DHT22;5698;47.332;11.180;2023-11-21T00:02:26;3.80;99.90
11284;DHT22;5698;47.332;11.180;2023-11-21T00:04:53;3.80;99.90
11284;DHT22;5698;47.332;11.180;2023-11-21T00:07:22;3.80;99.90
11284;DHT22;5698;47.332;11.180;2023-11-21T00:09:49;3.70;99.90
11284;DHT22;5698;47.332;11.180;2023-11-21T00:12:16;3.60;99.90
11284;DHT22;5698;47.332;11.180;2023-11-21T00:14:43;3.60;99.90
11284;DHT22;5698;47.332;11.180;2023-11-21T00:17:10;3.60;99.90
11284;DHT22;5698;47.332;11.180;2023-11-21T00:19:37;3.50;99.90
11284;DHT22;5698;47.332;11.180;2023-11-21T00:22:04;3.50;99.90
11284;DHT22;5698;47.332;11.180;2023-11-21T00:24:33;3.50;99.90
11284;DHT22;5698;47.332;11.180;2023-11-21T00:27:00;3.50;99.90
11284;DHT22;5698;47.332;11.180;2023-11-21T00:29:27;3.40;99.90
11284;DHT22;5698;47.332;11.180;2023-11-21T00:31:54;3.40;99.90
11284;DHT22;5698;47.332;11.180;2023-11-21T00:34:21;3.40;99.90
11284;DHT22;5698;47.332;11.180;2023-11-21T00:36:48;3.30;99.90
11284;DHT22;5698;47.332;11.180;2023-11-21T00:39:15;3.30;99.90
11284;DHT22;5698;47.332;11.180;2023-11-21T00:41:43;3.30;99.90
11284;DHT22;5698;47.332;11.180;2023-11-21T00:44:10;3.30;99.90
11284;DHT22;5698;47.332;11.180;2023-11-21T00:46:37;3.30;99.90
11284;DHT22;5698;47.332;11.180;2023-11-21T00:49:04;3.30;99.90
11284;DHT22;5698;47.332;11.180;2023-11-21T00:51:30;3.40;99.90
11284;DHT22;5698;47.332;11.180;2023-11-21T00:53:57;3.30;99.90
11284;DHT22;5698;47.332;11.180;2023-11-21T00:56:24;3.20;99.90
11284;DHT22;5698;47.332;11.180;2023-11-21T00:58:53;3.20;99.90
11284;DHT22;5698;47.332;11.180;2023-11-21T01:01:21;3.10;99.90
11284;DHT22;5698;47.332;11.180;2023-11-21T01:03:49;3.10;99.90
11284;DHT22;5698;47.332;11.180;2023-11-21T01:06:16;3.10;99.90
11284;DHT22;5698;47.332;11.180;2023-11-21T01:08:44;3.10;99.90
11284;DHT22;5698;47.332;11.180;2023-11-21T01:11:11;3.00;99.90
11284;DHT22;5698;47.332;11.180;2023-11-21T01:13:38;3.00;99.90
11284;DHT22;5698;47.332;11.180;2023-11-21T01:16:07;3.00;99.90
11284;DHT22;5698;47.332;11.180;2023-11-21T01:18:35;3.00;99.90
11284;DHT22;5698;47.332;11.180;2023-11-21T01:21:02;2.90;99.90
11284;DHT22;5698;47.332;11.180;2023-11-21T01:23:30;2.90;99.90
11284;DHT22;5698;47.332;11.180;2023-11-21T01:25:57;2.90;99.90
11284;DHT22;5698;47.332;11.180;2023-11-21T01:28:24;2.80;99.90
11284;DHT22;5698;47.332;11.180;2023-11-21T01:30:52;2.80;99.90
11284;DHT22;5698;47.332;11.180;2023-11-21T01:33:23;2.80;99.90
11284;DHT22;5698;47.332;11.180;2023-11-21T01:35:51;2.70;99.90
11284;DHT22;5698;47.332;11.180;2023-11-21T01:38:20;2.70;99.90
11284;DHT22;5698;47.332;11.180;2023-11-21T01:40:47;2.70;99.90
11284;DHT22;5698;47.332;11.180;2023-11-21T01:43:14;2.80;99.90
11284;DHT22;5698;47.332;11.180;2023-11-21T01:45:42;2.60;99.90
11284;DHT22;5698;47.332;11.180;2023-11-21T01:48:10;2.60;99.90
11284;DHT22;5698;47.332;11.180;2023-11-21T01:50:39;2.60;99.90
11284;DHT22;5698;47.332;11.180;2023-11-21T01:53:06;2.60;99.90
11284;DHT22;5698;47.332;11.180;2023-11-21T01:55:33;2.70;99.90
11284;DHT22;5698;47.332;11.180;2023-11-21T01:58:01;2.80;99.90
11284;DHT22;5698;47.332;11.180;2023-11-21T02:00:28;2.80;99.90
11284;DHT22;5698;47.332;11.180;2023-11-21T02:02:55;2.60;99.90
11284;DHT22;5698;47.332;11.180;2023-11-21T02:05:22;2.60;99.90
11284;DHT22;5698;47.332;11.180;2023-11-21T02:07:51;2.60;99.90
11284;DHT22;5698;47.332;11.180;2023-11-21T02:10:18;2.50;99.90
11284;DHT22;5698;47.332;11.180;2023-11-21T02:12:48;2.50;99.90
11284;DHT22;5698;47.332;11.180;2023-11-21T02:15:17;2.50;99.90
11284;DHT22;5698;47.332;11.180;2023-11-21T02:17:46;2.50;99.90
11284;DHT22;5698;47.332;11.180;2023-11-21T02:20:17;2.60;99.90
11284;DHT22;5698;47.332;11.180;2023-11-21T02:22:50;2.40;99.90
11284;DHT22;5698;47.332;11.180;2023-11-21T02:25:18;2.50;99.90
11284;DHT22;5698;47.332;11.180;2023-11-21T02:27:45;2.50;99.90
11284;DHT22;5698;47.332;11.180;2023-11-21T02:30:14;2.50;99.90
11284;DHT22;5698;47.332;11.180;2023-11-21T02:32:41;2.50;99.90
11284;DHT22;5698;47.332;11.180;2023-11-21T02:35:09;2.50;99.90
11284;DHT22;5698;47.332;11.180;2023-11-21T02:37:37;2.50;99.90
11284;DHT22;5698;47.332;11.180;2023-11-21T02:40:09;2.50;99.90
11284;DHT22;5698;47.332;11.180;2023-11-21T02:42:38;2.50;99.90
11284;DHT22;5698;47.332;11.180;2023-11-21T02:45:06;2.60;99.90
11284;DHT22;5698;47.332;11.180;2023-11-21T02:47:33;2.60;99.90
11284;DHT22;5698;47.332;11.180;2023-11-21T02:50:00;2.60;99.90
11284;DHT22;5698;47.332;11.180;2023-11-21T02:52:27;2.50;99.90
11284;DHT22;5698;47.332;11.180;2023-11-21T02:54:54;2.50;99.90
11284;DHT22;5698;47.332;11.180;2023-11-21T02:57:22;2.50;99.90
11284;DHT22;5698;47.332;11.180;2023-11-21T02:59:49;2.40;99.90
11284;DHT22;5698;47.332;11.180;2023-11-21T03:02:16;2.40;99.90
11284;DHT22;5698;47.332;11.180;2023-11-21T03:04:43;2.40;99.90
11284;DHT22;5698;47.332;11.180;2023-11-21T03:07:10;2.40;99.90
11284;DHT22;5698;47.332;11.180;2023-11-21T03:09:37;2.40;99.90
11284;DHT22;5698;47.332;11.180;2023-11-21T03:12:05;2.50;99.90
11284;DHT22;5698;47.332;11.180;2023-11-21T03:14:33;2.40;99.90
11284;DHT22;5698;47.332;11.180;2023-11-21T03:17:00;2.40;99.90
11284;DHT22;5698;47.332;11.180;2023-11-21T03:19:28;2.40;99.90
11284;DHT22;5698;47.332;11.180;2023-11-21T03:21:55;2.50;99.90
11284;DHT22;5698;47.332;11.180;2023-11-21T03:24:22;2.40;99.90
11284;DHT22;5698;47.332;11.180;2023-11-21T03:26:49;2.50;99.90
11284;DHT22;5698;47.332;11.180;2023-11-21T03:29:16;2.50;99.90
11284;DHT22;5698;47.332;11.180;2023-11-21T03:31:45;2.40;99.90
11284;DHT22;5698;47.332;11.180;2023-11-21T03:34:16;2.50;99.90
11284;DHT22;5698;47.332;11.180;2023-11-21T03:36:43;2.40;99.90
11284;DHT22;5698;47.332;11.180;2023-11-21T03:39:12;2.40;99.90
11284;DHT22;5698;47.332;11.180;2023-11-21T03:41:38;2.40;99.90
11284;DHT22;5698;47.332;11.180;2023-11-21T03:44:06;2.40;99.90
11284;DHT22;5698;47.332;11.180;2023-11-21T03:46:33;2.50;99.90
11284;DHT22;5698;47.332;11.180;2023-11-21T03:49:01;2.50;99.90
11284;DHT22;5698;47.332;11.180;2023-11-21T03:51:28;2.50;99.90
11284;DHT22;5698;47.332;11.180;2023-11-21T03:53:55;2.50;99.90
11284;DHT22;5698;47.332;11.180;2023-11-21T03:56:22;2.50;99.90
11284;DHT22;5698;47.332;11.180;2023-11-21T03:58:49;2.50;99.90
11284;DHT22;5698;47.332;11.180;2023-11-21T04:01:20;2.60;99.90
11284;DHT22;5698;47.332;11.180;2023-11-21T04:03:48;2.50;99.90
11284;DHT22;5698;47.332;11.180;2023-11-21T04:06:17;2.50;99.90
11284;DHT22;5698;47.332;11.180;2023-11-21T04:08:44;2.60;99.90
11284;DHT22;5698;47.332;11.180;2023-11-21T04:11:11;2.60;99.90
11284;DHT22;5698;47.332;11.180;2023-11-21T04:13:38;2.60;99.90
11284;DHT22;5698;47.332;11.180;2023-11-21T04:16:06;2.60;99.90
11284;DHT22;5698;47.332;11.180;2023-11-21T04:18:33;2.60;99.90
11284;DHT22;5698;47.332;11.180;2023-11-21T04:21:00;2.60;99.90
11284;DHT22;5698;47.332;11.180;2023-11-21T04:23:29;2.60;99.90
11284;DHT22;5698;47.332;11.180;2023-11-21T04:25:57;2.60;99.90
11284;DHT22;5698;47.332;11.180;2023-11-21T04:28:24;2.60;99.90
11284;DHT22;5698;47.332;11.180;2023-11-21T04:30:51;2.70;99.90
11284;DHT22;5698;47.332;11.180;2023-11-21T04:33:18;2.70;99.90
11284;DHT22;5698;47.332;11.180;2023-11-21T04:35:45;2.60;99.90
11284;DHT22;5698;47.332;11.180;2023-11-21T04:38:12;2.60;99.90
11284;DHT22;5698;47.332;11.180;2023-11-21T04:40:40;2.60;99.90
11284;DHT22;5698;47.332;11.180;2023-11-21T04:43:07;2.60;99.90
11284;DHT22;5698;47.332;11.180;2023-11-21T04:45:34;2.60;99.90
11284;DHT22;5698;47.332;11.180;2023-11-21T04:48:01;2.60;99.90
11284;DHT22;5698;47.332;11.180;2023-11-21T04:50:30;2.60;99.90
11284;DHT22;5698;47.332;11.180;2023-11-21T04:52:57;2.60;99.90
11284;DHT22;5698;47.332;11.180;2023-11-21T04:55:24;2.50;99.90
11284;DHT22;5698;47.332;11.180;2023-11-21T04:57:54;2.50;99.90
11284;DHT22;5698;47.332;11.180;2023-11-21T05:00:21;2.50;99.90
11284;DHT22;5698;47.332;11.180;2023-11-21T05:02:49;2.50;99.90
11284;DHT22;5698;47.332;11.180;2023-11-21T05:05:16;2.40;99.90
11284;DHT22;5698;47.332;11.180;2023-11-21T05:07:43;2.40;99.90
11284;DHT22;5698;47.332;11.180;2023-11-21T05:10:10;2.40;99.90
11284;DHT22;5698;47.332;11.180;2023-11-21T05:12:40;2.40;99.90
11284;DHT22;5698;47.332;11.180;2023-11-21T05:15:10;2.40;99.90
11284;DHT22;5698;47.332;11.180;2023-11-21T05:17:39;2.30;99.90
11284;DHT22;5698;47.332;11.180;2023-11-21T05:20:09;2.30;99.90
11284;DHT22;5698;47.332;11.180;2023-11-21T05:22:37;2.30;99.90
11284;DHT22;5698;47.332;11.180;2023-11-21T05:25:04;2.30;99.90
11284;DHT22;5698;47.332;11.180;2023-11-21T05:27:33;2.30;99.90
11284;DHT22;5698;47.332;11.180;2023-11-21T05:30:01;2.30;99.90
11284;DHT22;5698;47.332;11.180;2023-11-21T05:32:29;2.30;99.90
11284;DHT22;5698;47.332;11.180;2023-11-21T05:34:56;2.30;99.90
11284;DHT22;5698;47.332;11.180;2023-11-21T05:37:24;2.30;99.90
11284;DHT22;5698;47.332;11.180;2023-11-21T05:39:52;2.30;99.90
11284;DHT22;5698;47.332;11.180;2023-11-21T05:42:22;2.30;99.90
11284;DHT22;5698;47.332;11.180;2023-11-21T05:44:49;2.30;99.90
11284;DHT22;5698;47.332;11.180;2023-11-21T05:47:16;2.30;99.90
11284;DHT22;5698;47.332;11.180;2023-11-21T05:49:45;2.30;99.90
11284;DHT22;5698;47.332;11.180;2023-11-21T05:52:11;2.30;99.90
11284;DHT22;5698;47.332;11.180;2023-11-21T05:54:38;2.30;99.90
11284;DHT22;5698;47.332;11.180;2023-11-21T05:57:05;2.30;99.90
11284;DHT22;5698;47.332;11.180;2023-11-21T05:59:32;2.30;99.90
11284;DHT22;5698;47.332;11.180;2023-11-21T06:01:59;2.30;99.90
11284;DHT22;5698;47.332;11.180;2023-11-21T06:04:27;2.30;99.90
11284;DHT22;5698;47.332;11.180;2023-11-21T06:06:56;2.30;99.90
11284;DHT22;5698;47.332;11.180;2023-11-21T06:09:23;2.30;99.90
11284;DHT22;5698;47.332;11.180;2023-11-21T06:11:50;2.30;99.90
11284;DHT22;5698;47.332;11.180;2023-11-21T06:14:17;2.30;99.90
11284;DHT22;5698;47.332;11.180;2023-11-21T06:16:44;2.30;99.90
11284;DHT22;5698;47.332;11.180;2023-11-21T06:19:11;2.30;99.90
11284;DHT22;5698;47.332;11.180;2023-11-21T06:21:38;2.30;99.90
11284;DHT22;5698;47.332;11.180;2023-11-21T06:24:07;2.30;99.90
11284;DHT22;5698;47.332;11.180;2023-11-21T06:26:34;2.30;99.90
11284;DHT22;5698;47.332;11.180;2023-11-21T06:29:01;2.30;99.90
11284;DHT22;5698;47.332;11.180;2023-11-21T06:31:29;2.30;99.90
11284;DHT22;5698;47.332;11.180;2023-11-21T06:33:58;2.40;99.90
11284;DHT22;5698;47.332;11.180;2023-11-21T06:36:25;2.30;99.90
11284;DHT22;5698;47.332;11.180;2023-11-21T06:38:53;2.40;99.90
11284;DHT22;5698;47.332;11.180;2023-11-21T06:41:22;2.40;99.90
11284;DHT22;5698;47.332;11.180;2023-11-21T06:43:49;2.40;99.90
11284;DHT22;5698;47.332;11.180;2023-11-21T06:46:16;2.30;99.90
11284;DHT22;5698;47.332;11.180;2023-11-21T06:48:44;2.40;99.90
11284;DHT22;5698;47.332;11.180;2023-11-21T06:51:11;2.30;99.90
11284;DHT22;5698;47.332;11.180;2023-11-21T06:53:38;2.40;99.90
11284;DHT22;5698;47.332;11.180;2023-11-21T06:56:15;2.40;99.90
11284;DHT22;5698;47.332;11.180;2023-11-21T06:58:44;2.40;99.90
11284;DHT22;5698;47.332;11.180;2023-11-21T07:01:11;2.40;99.90
11284;DHT22;5698;47.332;11.180;2023-11-21T07:03:38;2.40;99.90
11284;DHT22;5698;47.332;11.180;2023-11-21T07:06:07;2.40;99.90
11284;DHT22;5698;47.332;11.180;2023-11-21T07:08:34;2.40;99.90
11284;DHT22;5698;47.332;11.180;2023-11-21T07:11:01;2.50;99.90
11284;DHT22;5698;47.332;11.180;2023-11-21T07:13:28;2.50;99.90
11284;DHT22;5698;47.332;11.180;2023-11-21T07:15:58;2.50;99.90
11284;DHT22;5698;47.332;11.180;2023-11-21T07:18:25;2.50;99.90
11284;DHT22;5698;47.332;11.180;2023-11-21T07:20:52;2.60;99.90
11284;DHT22;5698;47.332;11.180;2023-11-21T07:23:19;2.50;99.90
11284;DHT22;5698;47.332;11.180;2023-11-21T07:25:48;2.60;99.90
11284;DHT22;5698;47.332;11.180;2023-11-21T07:28:15;2.60;99.90
11284;DHT22;5698;47.332;11.180;2023-11-21T07:30:42;2.60;99.90
11284;DHT22;5698;47.332;11.180;2023-11-21T07:33:10;2.60;99.90
11284;DHT22;5698;47.332;11.180;2023-11-21T07:35:37;2.60;99.90
11284;DHT22;5698;47.332;11.180;2023-11-21T07:38:04;2.70;99.90
11284;DHT22;5698;47.332;11.180;2023-11-21T07:40:31;2.70;99.90
11284;DHT22;5698;47.332;11.180;2023-11-21T07:42:58;2.70;99.90
11284;DHT22;5698;47.332;11.180;2023-11-21T07:45:25;2.70;99.90
11284;DHT22;5698;47.332;11.180;2023-11-21T07:47:54;2.70;99.90
11284;DHT22;5698;47.332;11.180;2023-11-21T07:50:22;2.80;99.90
11284;DHT22;5698;47.332;11.180;2023-11-21T07:52:49;2.80;99.90
11284;DHT22;5698;47.332;11.180;2023-11-21T07:55:16;2.80;99.90
11284;DHT22;5698;47.332;11.180;2023-11-21T07:57:43;2.80;99.90
11284;DHT22;5698;47.332;11.180;2023-11-21T08:00:11;2.80;99.90
11284;DHT22;5698;47.332;11.180;2023-11-21T08:02:41;2.90;99.90
11284;DHT22;5698;47.332;11.180;2023-11-21T08:05:11;2.90;99.90
11284;DHT22;5698;47.332;11.180;2023-11-21T08:07:39;3.00;99.90
11284;DHT22;5698;47.332;11.180;2023-11-21T08:10:08;2.90;99.90
11284;DHT22;5698;47.332;11.180;2023-11-21T08:12:36;2.90;99.90
11284;DHT22;5698;47.332;11.180;2023-11-21T08:15:05;3.00;99.90
11284;DHT22;5698;47.332;11.180;2023-11-21T08:17:32;3.00;99.90
11284;DHT22;5698;47.332;11.180;2023-11-21T08:19:59;3.00;99.90
11284;DHT22;5698;47.332;11.180;2023-11-21T08:22:26;3.10;99.90
11284;DHT22;5698;47.332;11.180;2023-11-21T08:24:54;3.10;99.90
11284;DHT22;5698;47.332;11.180;2023-11-21T08:27:21;3.20;99.90
11284;DHT22;5698;47.332;11.180;2023-11-21T08:29:48;3.20;99.90
11284;DHT22;5698;47.332;11.180;2023-11-21T08:32:16;3.30;99.90
11284;DHT22;5698;47.332;11.180;2023-11-21T08:34:43;3.30;99.90
11284;DHT22;5698;47.332;11.180;2023-11-21T08:37:11;3.40;99.90
11284;DHT22;5698;47.332;11.180;2023-11-21T08:39:38;3.40;99.90
11284;DHT22;5698;47.332;11.180;2023-11-21T08:42:06;3.50;99.90
11284;DHT22;5698;47.332;11.180;2023-11-21T08:44:33;3.50;99.90
11284;DHT22;5698;47.332;11.180;2023-11-21T08:47:00;3.50;99.90
11284;DHT22;5698;47.332;11.180;2023-11-21T08:49:27;3.50;99.90
11284;DHT22;5698;47.332;11.180;2023-11-21T08:51:55;3.50;99.90
11284;DHT22;5698;47.332;11.180;2023-11-21T08:54:24;3.50;99.90
11284;DHT22;5698;47.332;11.180;2023-11-21T08:56:51;3.60;99.90
11284;DHT22;5698;47.332;11.180;2023-11-21T08:59:20;3.60;99.90
11284;DHT22;5698;47.332;11.180;2023-11-21T09:01:47;3.60;99.90
11284;DHT22;5698;47.332;11.180;2023-11-21T09:04:14;3.60;99.90
11284;DHT22;5698;47.332;11.180;2023-11-21T09:06:40;3.60;99.90
11284;DHT22;5698;47.332;11.180;2023-11-21T09:09:06;3.70;99.90
11284;DHT22;5698;47.332;11.180;2023-11-21T09:11:35;3.70;99.90
11284;DHT22;5698;47.332;11.180;2023-11-21T09:14:03;3.70;99.90
11284;DHT22;5698;47.332;11.180;2023-11-21T09:16:31;3.80;99.90
11284;DHT22;5698;47.332;11.180;2023-11-21T09:18:58;3.80;99.90
11284;DHT22;5698;47.332;11.180;2023-11-21T09:21:25;3.80;99.90
11284;DHT22;5698;47.332;11.180;2023-11-21T09:23:53;3.90;99.90
11284;DHT22;5698;47.332;11.180;2023-11-21T09:26:20;3.90;99.90
11284;DHT22;5698;47.332;11.180;2023-11-21T09:28:47;3.90;99.90
11284;DHT22;5698;47.332;11.180;2023-11-21T09:31:14;4.00;99.90
11284;DHT22;5698;47.332;11.180;2023-11-21T09:33:44;4.00;99.90
11284;DHT22;5698;47.332;11.180;2023-11-21T09:36:12;4.00;99.90
11284;DHT22;5698;47.332;11.180;2023-11-21T09:38:40;4.10;99.90
11284;DHT22;5698;47.332;11.180;2023-11-21T09:41:14;4.10;99.90
11284;DHT22;5698;47.332;11.180;2023-11-21T09:43:44;4.20;99.90
11284;DHT22;5698;47.332;11.180;2023-11-21T09:46:13;4.20;99.90
11284;DHT22;5698;47.332;11.180;2023-11-21T09:48:49;4.30;99.90
11284;DHT22;5698;47.332;11.180;2023-11-21T09:51:19;4.30;99.90
11284;DHT22;5698;47.332;11.180;2023-11-21T09:53:49;4.40;99.90
11284;DHT22;5698;47.332;11.180;2023-11-21T09:56:17;4.40;99.90
11284;DHT22;5698;47.332;11.180;2023-11-21T09:58:51;4.40;99.90
11284;DHT22;5698;47.332;11.180;2023-11-21T10:01:19;4.40;99.90
11284;DHT22;5698;47.332;11.180;2023-11-21T10:03:49;4.40;99.90
11284;DHT22;5698;47.332;11.180;2023-11-21T10:06:17;4.40;99.90
11284;DHT22;5698;47.332;11.180;2023-11-21T10:08:45;4.40;99.90
11284;DHT22;5698;47.332;11.180;2023-11-21T10:11:12;4.40;99.90
11284;DHT22;5698;47.332;11.180;2023-11-21T10:13:41;4.50;99.90
11284;DHT22;5698;47.332;11.180;2023-11-21T10:16:14;4.40;99.90
11284;DHT22;5698;47.332;11.180;2023-11-21T10:18:43;4.50;99.90
11284;DHT22;5698;47.332;11.180;2023-11-21T10:21:13;4.50;99.90
11284;DHT22;5698;47.332;11.180;2023-11-21T10:23:40;4.40;99.90
11284;DHT22;5698;47.332;11.180;2023-11-21T10:26:11;4.40;99.90
11284;DHT22;5698;47.332;11.180;2023-11-21T10:28:41;4.40;99.90
11284;DHT22;5698;47.332;11.180;2023-11-21T10:31:08;4.40;99.90
11284;DHT22;5698;47.332;11.180;2023-11-21T10:33:36;4.40;99.90
11284;DHT22;5698;47.332;11.180;2023-11-21T10:36:03;4.30;99.90
11284;DHT22;5698;47.332;11.180;2023-11-21T10:38:42;4.30;99.90
11284;DHT22;5698;47.332;11.180;2023-11-21T10:41:11;4.20;99.90
11284;DHT22;5698;47.332;11.180;2023-11-21T10:43:41;4.20;99.90
11284;DHT22;5698;47.332;11.180;2023-11-21T10:46:08;4.10;99.90
11284;DHT22;5698;47.332;11.180;2023-11-21T10:48:35;4.10;99.90
11284;DHT22;5698;47.332;11.180;2023-11-21T10:51:07;4.00;99.90
11284;DHT22;5698;47.332;11.180;2023-11-21T10:53:39;4.00;99.90
11284;DHT22;5698;47.332;11.180;2023-11-21T10:56:09;4.00;99.90
11284;DHT22;5698;47.332;11.180;2023-11-21T10:58:43;4.00;99.90
11284;DHT22;5698;47.332;11.180;2023-11-21T11:01:10;4.00;99.90
11284;DHT22;5698;47.332;11.180;2023-11-21T11:03:41;4.00;99.90
11284;DHT22;5698;47.332;11.180;2023-11-21T11:06:08;4.10;99.90
11284;DHT22;5698;47.332;11.180;2023-11-21T11:08:38;4.10;99.90
11284;DHT22;5698;47.332;11.180;2023-11-21T11:11:06;4.10;99.90
11284;DHT22;5698;47.332;11.180;2023-11-21T11:13:33;4.00;99.90
11284;DHT22;5698;47.332;11.180;2023-11-21T11:16:01;4.00;99.90
11284;DHT22;5698;47.332;11.180;2023-11-21T11:18:29;4.00;99.90
11284;DHT22;5698;47.332;11.180;2023-11-21T11:21:06;4.00;99.90
11284;DHT22;5698;47.332;11.180;2023-11-21T11:23:46;4.00;99.90
11284;DHT22;5698;47.332;11.180;2023-11-21T11:26:24;4.00;99.90
11284;DHT22;5698;47.332;11.180;2023-11-21T11:29:00;4.00;99.90
11284;DHT22;5698;47.332;11.180;2023-11-21T11:31:39;4.00;99.90
11284;DHT22;5698;47.332;11.180;2023-11-21T11:34:17;4.00;99.90
11284;DHT22;5698;47.332;11.180;2023-11-21T11:36:49;4.00;99.90
11284;DHT22;5698;47.332;11.180;2023-11-21T11:39:29;4.00;99.90
11284;DHT22;5698;47.332;11.180;2023-11-21T11:41:57;4.00;99.90
11284;DHT22;5698;47.332;11.180;2023-11-21T11:44:53;4.00;99.90
11284;DHT22;5698;47.332;11.180;2023-11-21T11:47:25;3.90;99.90
11284;DHT22;5698;47.332;11.180;2023-11-21T11:50:06;4.00;99.90
11284;DHT22;5698;47.332;11.180;2023-11-21T11:52:40;4.00;99.90
11284;DHT22;5698;47.332;11.180;2023-11-21T11:55:10;4.00;99.90
11284;DHT22;5698;47.332;11.180;2023-11-21T11:57:37;3.90;99.90
11284;DHT22;5698;47.332;11.180;2023-11-21T12:00:33;3.90;99.90
11284;DHT22;5698;47.332;11.180;2023-11-21T12:03:03;3.90;99.90
11284;DHT22;5698;47.332;11.180;2023-11-21T12:05:32;3.90;99.90
11284;DHT22;5698;47.332;11.180;2023-11-21T12:08:00;3.90;99.90
11284;DHT22;5698;47.332;11.180;2023-11-21T12:10:30;3.90;99.90
11284;DHT22;5698;47.332;11.180;2023-11-21T12:12:58;3.90;99.90
11284;DHT22;5698;47.332;11.180;2023-11-21T12:15:27;4.00;99.90
11284;DHT22;5698;47.332;11.180;2023-11-21T12:17:57;4.00;99.90
11284;DHT22;5698;47.332;11.180;2023-11-21T12:20:25;4.00;99.90
11284;DHT22;5698;47.332;11.180;2023-11-21T12:22:53;4.00;99.90
11284;DHT22;5698;47.332;11.180;2023-11-21T12:25:22;4.00;99.90
11284;DHT22;5698;47.332;11.180;2023-11-21T12:27:52;4.00;99.90
11284;DHT22;5698;47.332;11.180;2023-11-21T12:30:21;4.00;99.90
11284;DHT22;5698;47.332;11.180;2023-11-21T12:32:49;4.00;99.90
11284;DHT22;5698;47.332;11.180;2023-11-21T12:35:17;4.00;99.90
11284;DHT22;5698;47.332;11.180;2023-11-21T12:37:45;4.00;99.90
11284;DHT22;5698;47.332;11.180;2023-11-21T12:40:13;4.10;99.90
11284;DHT22;5698;47.332;11.180;2023-11-21T12:42:41;4.10;99.90
11284;DHT22;5698;47.332;11.180;2023-11-21T12:45:19;4.10;99.90
11284;DHT22;5698;47.332;11.180;2023-11-21T12:47:47;4.10;99.90
11284;DHT22;5698;47.332;11.180;2023-11-21T12:50:15;4.10;99.90
11284;DHT22;5698;47.332;11.180;2023-11-21T12:52:42;4.20;99.90
11284;DHT22;5698;47.332;11.180;2023-11-21T12:55:14;4.20;99.90
11284;DHT22;5698;47.332;11.180;2023-11-21T12:57:43;4.20;99.90
11284;DHT22;5698;47.332;11.180;2023-11-21T13:00:13;4.30;99.90
11284;DHT22;5698;47.332;11.180;2023-11-21T13:02:54;4.30;99.90
11284;DHT22;5698;47.332;11.180;2023-11-21T13:05:29;4.30;99.90
11284;DHT22;5698;47.332;11.180;2023-11-21T13:07:57;4.30;99.90
11284;DHT22;5698;47.332;11.180;2023-11-21T13:10:26;4.30;99.90
11284;DHT22;5698;47.332;11.180;2023-11-21T13:12:57;4.40;99.90
11284;DHT22;5698;47.332;11.180;2023-11-21T13:15:27;4.40;99.90
11284;DHT22;5698;47.332;11.180;2023-11-21T13:17:57;4.40;99.90
11284;DHT22;5698;47.332;11.180;2023-11-21T13:20:25;4.40;99.90
11284;DHT22;5698;47.332;11.180;2023-11-21T13:22:53;4.40;99.90
11284;DHT22;5698;47.332;11.180;2023-11-21T13:25:23;4.40;99.90
11284;DHT22;5698;47.332;11.180;2023-11-21T13:27:53;4.40;99.90
11284;DHT22;5698;47.332;11.180;2023-11-21T13:30:20;4.40;99.90
11284;DHT22;5698;47.332;11.180;2023-11-21T13:32:53;4.40;99.90
11284;DHT22;5698;47.332;11.180;2023-11-21T13:35:23;4.40;99.90
11284;DHT22;5698;47.332;11.180;2023-11-21T13:37:57;4.40;99.90
11284;DHT22;5698;47.332;11.180;2023-11-21T13:40:26;4.50;99.90
11284;DHT22;5698;47.332;11.180;2023-11-21T13:42:53;4.50;99.90
11284;DHT22;5698;47.332;11.180;2023-11-21T13:45:23;4.50;99.90
11284;DHT22;5698;47.332;11.180;2023-11-21T13:47:53;4.50;99.90
11284;DHT22;5698;47.332;11.180;2023-11-21T13:50:23;4.50;99.90
11284;DHT22;5698;47.332;11.180;2023-11-21T13:52:54;4.50;99.90
11284;DHT22;5698;47.332;11.180;2023-11-21T13:55:21;4.50;99.90
11284;DHT22;5698;47.332;11.180;2023-11-21T13:57:51;4.40;99.90
11284;DHT22;5698;47.332;11.180;2023-11-21T14:00:18;4.50;99.90
11284;DHT22;5698;47.332;11.180;2023-11-21T14:03:11;4.40;99.90
11284;DHT22;5698;47.332;11.180;2023-11-21T14:05:46;4.40;99.90
11284;DHT22;5698;47.332;11.180;2023-11-21T14:08:18;4.30;99.90
11284;DHT22;5698;47.332;11.180;2023-11-21T14:10:46;4.30;99.90
11284;DHT22;5698;47.332;11.180;2023-11-21T14:13:17;4.20;99.90
11284;DHT22;5698;47.332;11.180;2023-11-21T14:15:45;4.20;99.90
11284;DHT22;5698;47.332;11.180;2023-11-21T14:18:17;4.20;99.90
11284;DHT22;5698;47.332;11.180;2023-11-21T14:20:53;4.20;99.90
11284;DHT22;5698;47.332;11.180;2023-11-21T14:23:20;4.10;99.90
11284;DHT22;5698;47.332;11.180;2023-11-21T14:25:49;4.10;99.90
11284;DHT22;5698;47.332;11.180;2023-11-21T14:28:16;4.10;99.90
11284;DHT22;5698;47.332;11.180;2023-11-21T14:30:44;4.00;99.90
11284;DHT22;5698;47.332;11.180;2023-11-21T14:33:12;4.00;99.90
11284;DHT22;5698;47.332;11.180;2023-11-21T14:35:40;4.00;99.90
11284;DHT22;5698;47.332;11.180;2023-11-21T14:38:08;3.90;99.90
11284;DHT22;5698;47.332;11.180;2023-11-21T14:40:36;3.90;99.90
11284;DHT22;5698;47.332;11.180;2023-11-21T14:43:03;3.90;99.90
11284;DHT22;5698;47.332;11.180;2023-11-21T14:45:31;3.80;99.90
11284;DHT22;5698;47.332;11.180;2023-11-21T14:47:58;3.80;99.90
11284;DHT22;5698;47.332;11.180;2023-11-21T14:50:32;3.70;99.90
11284;DHT22;5698;47.332;11.180;2023-11-21T14:53:33;3.70;99.90
11284;DHT22;5698;47.332;11.180;2023-11-21T14:56:19;3.70;99.90
11284;DHT22;5698;47.332;11.180;2023-11-21T14:58:52;3.60;99.90
11284;DHT22;5698;47.332;11.180;2023-11-21T15:01:20;3.60;99.90
11284;DHT22;5698;47.332;11.180;2023-11-21T15:03:56;3.60;99.90
11284;DHT22;5698;47.332;11.180;2023-11-21T15:06:23;3.50;99.90
11284;DHT22;5698;47.332;11.180;2023-11-21T15:08:57;3.50;99.90
11284;DHT22;5698;47.332;11.180;2023-11-21T15:11:42;3.50;99.90
11284;DHT22;5698;47.332;11.180;2023-11-21T15:14:09;3.40;99.90
11284;DHT22;5698;47.332;11.180;2023-11-21T15:16:38;3.40;99.90
11284;DHT22;5698;47.332;11.180;2023-11-21T15:19:08;3.40;99.90
11284;DHT22;5698;47.332;11.180;2023-11-21T15:21:37;3.30;99.90
11284;DHT22;5698;47.332;11.180;2023-11-21T15:24:06;3.30;99.90
11284;DHT22;5698;47.332;11.180;2023-11-21T15:26:34;3.30;99.90
11284;DHT22;5698;47.332;11.180;2023-11-21T15:29:00;3.20;99.90
11284;DHT22;5698;47.332;11.180;2023-11-21T15:31:27;3.20;99.90
11284;DHT22;5698;47.332;11.180;2023-11-21T15:33:54;3.20;99.90
11284;DHT22;5698;47.332;11.180;2023-11-21T15:36:25;3.20;99.90
11284;DHT22;5698;47.332;11.180;2023-11-21T15:38:52;3.10;99.90
11284;DHT22;5698;47.332;11.180;2023-11-21T15:41:20;3.10;99.90
11284;DHT22;5698;47.332;11.180;2023-11-21T15:43:47;3.00;99.90
11284;DHT22;5698;47.332;11.180;2023-11-21T15:46:16;3.00;99.90
11284;DHT22;5698;47.332;11.180;2023-11-21T15:48:43;3.00;99.90
11284;DHT22;5698;47.332;11.180;2023-11-21T15:51:16;3.00;99.90
11284;DHT22;5698;47.332;11.180;2023-11-21T15:53:43;3.00;99.90
11284;DHT22;5698;47.332;11.180;2023-11-21T15:56:10;3.00;99.90